Time;durP1;ratioP1;P1;durP2;ratioP2;P2;SDS_P1;SDS_P2;PMS_P1;PMS_P2;Temp;Humidity;BMP_temperature;BMP_pressure;BME280_temperature;BME280_humidity;BME280_pressure;Samples;Min_cycle;Max_cycle;Signal;HPM_P1;HPM_P2
2022/12/19 00:01:36;;;;;;;42.30;16.20;;;;;;;-7.55;73.51;101250.02;103084;1295;98043;-66
2022/12/19 00:04:09;;;;;;;45.00;17.20;;;;;;;-7.56;73.42;101247.58;103200;1301;97873;-66
2022/12/19 00:06:38;;;;;;;40.90;16.90;;;;;;;-7.57;73.51;101249.75;103216;1294;111177;-67
2022/12/19 00:09:13;;;;;;;43.60;16.20;;;;;;;-7.56;73.47;101238.23;103206;1302;98036;-66
2022/12/19 00:11:41;;;;;;;40.80;15.80;;;;;;;-7.57;73.55;101236.64;103205;1287;107774;-66
2022/12/19 00:14:10;;;;;;;39.90;15.80;;;;;;;-7.63;73.24;101241.29;103181;1295;97877;-66
2022/12/19 00:16:38;;;;;;;40.60;15.20;;;;;;;-7.66;73.45;101238.92;103223;1294;95100;-67
2022/12/19 00:19:10;;;;;;;44.80;17.90;;;;;;;-7.67;73.53;101240.06;103219;1294;111721;-66
2022/12/19 00:21:38;;;;;;;42.80;17.10;;;;;;;-7.71;73.35;101241.15;103073;1298;97597;-66
2022/12/19 00:24:10;;;;;;;40.50;15.60;;;;;;;-7.74;73.41;101239.14;103217;1297;108019;-67
2022/12/19 00:26:49;;;;;;;43.50;16.60;;;;;;;-7.81;73.20;101236.66;103192;1300;97923;-67
2022/12/19 00:29:17;;;;;;;40.50;16.20;;;;;;;-7.87;73.21;101237.12;103268;1295;97878;-67
2022/12/19 00:31:45;;;;;;;38.70;16.40;;;;;;;-7.92;73.29;101236.23;103204;1301;111629;-67
2022/12/19 00:34:15;;;;;;;46.00;17.40;;;;;;;-7.95;73.42;101234.73;103308;1297;95206;-68
2022/12/19 00:36:44;;;;;;;38.30;14.50;;;;;;;-7.97;73.34;101238.98;103338;1288;107216;-67
2022/12/19 00:39:12;;;;;;;41.10;16.50;;;;;;;-8.01;73.37;101234.70;103324;1294;95161;-68
2022/12/19 00:41:41;;;;;;;40.20;16.80;;;;;;;-8.07;73.27;101229.66;103364;1298;95097;-67
2022/12/19 00:44:15;;;;;;;44.40;17.60;;;;;;;-8.13;73.26;101226.67;103258;1298;111879;-66
2022/12/19 00:46:44;;;;;;;43.00;17.30;;;;;;;-8.16;73.31;101225.52;103333;1287;95137;-66
2022/12/19 00:49:21;;;;;;;42.60;16.70;;;;;;;-8.17;73.27;101223.09;103297;1297;107579;-66
2022/12/19 00:51:50;;;;;;;43.90;17.70;;;;;;;-8.20;73.10;101219.86;103331;1300;97821;-65
2022/12/19 00:54:18;;;;;;;47.40;18.60;;;;;;;-8.25;72.98;101220.34;103298;1299;97894;-66
2022/12/19 00:56:46;;;;;;;51.40;20.20;;;;;;;-8.29;73.18;101221.74;103046;1304;112134;-66
2022/12/19 00:59:14;;;;;;;55.30;21.10;;;;;;;-8.32;73.08;101226.80;103256;1295;97873;-66
2022/12/19 01:01:49;;;;;;;55.90;19.40;;;;;;;-8.37;73.03;101227.66;103226;1294;107499;-67
2022/12/19 01:04:18;;;;;;;56.70;20.60;;;;;;;-8.43;73.12;101226.70;103239;1303;97961;-67
2022/12/19 01:06:57;;;;;;;56.80;22.60;;;;;;;-8.51;73.04;101222.29;103270;1294;96161;-66
2022/12/19 01:09:34;;;;;;;55.10;20.90;;;;;;;-8.55;73.09;101215.77;103228;1294;111628;-68
2022/12/19 01:14:55;;;;;;;54.30;21.20;;;;;;;-8.66;72.92;101216.39;103310;1295;108242;-67
2022/12/19 01:17:34;;;;;;;51.00;21.10;;;;;;;-8.73;73.04;101203.89;103248;1297;97957;-68
2022/12/19 01:20:17;;;;;;;48.30;18.50;;;;;;;-8.80;73.07;101196.90;103322;1295;97887;-65
2022/12/19 01:22:58;;;;;;;48.20;19.20;;;;;;;-8.90;73.06;101194.45;103352;1287;111699;-68
2022/12/19 01:25:29;;;;;;;49.40;20.00;;;;;;;-8.99;73.09;101194.45;103323;1294;96259;-66
2022/12/19 01:27:57;;;;;;;55.00;19.40;;;;;;;-9.03;73.13;101189.63;103234;1300;108152;-66
2022/12/19 01:30:26;;;;;;;45.10;19.30;;;;;;;-9.05;73.05;101189.04;103128;1296;97876;-67
2022/12/19 01:33:02;;;;;;;49.50;21.40;;;;;;;-9.04;73.17;101187.35;103225;1301;96936;-66
2022/12/19 01:35:30;;;;;;;56.90;22.00;;;;;;;-9.02;73.04;101186.91;103118;1297;110839;-67
2022/12/19 01:37:58;;;;;;;53.40;20.30;;;;;;;-9.01;73.25;101184.73;103290;1291;97957;-66
2022/12/19 01:40:37;;;;;;;55.30;19.90;;;;;;;-9.01;73.20;101181.63;103302;1294;107266;-67
2022/12/19 01:43:12;;;;;;;52.60;21.20;;;;;;;-9.00;73.13;101182.69;103319;1301;97913;-65
2022/12/19 01:45:41;;;;;;;45.00;17.90;;;;;;;-8.99;73.30;101181.39;103255;1302;98021;-65
2022/12/19 01:48:25;;;;;;;41.80;18.40;;;;;;;-8.99;73.42;101175.36;103233;1297;110917;-69
2022/12/19 01:51:03;;;;;;;47.60;19.60;;;;;;;-9.00;73.16;101172.92;103204;1302;97907;-67
2022/12/19 01:53:58;;;;;;;46.90;18.20;;;;;;;-9.00;73.09;101168.28;103261;1300;107239;-67
2022/12/19 01:56:34;;;;;;;45.40;17.30;;;;;;;-9.05;73.19;101165.13;103310;1301;97961;-67
2022/12/19 01:59:09;;;;;;;41.50;16.00;;;;;;;-9.15;73.07;101164.20;103254;1295;95261;-66
2022/12/19 02:01:41;;;;;;;44.30;16.70;;;;;;;-9.23;73.15;101160.27;103358;1298;111296;-66
2022/12/19 02:04:20;;;;;;;39.20;16.10;;;;;;;-9.30;73.16;101161.00;103312;1301;97928;-65
2022/12/19 02:06:51;;;;;;;34.20;13.70;;;;;;;-9.32;73.10;101160.41;103323;1294;108169;-66
2022/12/19 02:09:21;;;;;;;40.60;16.30;;;;;;;-9.33;73.14;101154.02;103299;1298;97824;-66
2022/12/19 02:11:50;;;;;;;41.00;15.10;;;;;;;-9.34;73.16;101154.15;103228;1299;95542;-67
2022/12/19 02:14:19;;;;;;;38.30;14.90;;;;;;;-9.35;73.16;101150.85;103234;1301;111809;-66
2022/12/19 02:17:01;;;;;;;39.40;15.10;;;;;;;-9.35;73.12;101149.97;103315;1294;98635;-67
2022/12/19 02:19:41;;;;;;;38.30;13.60;;;;;;;-9.34;73.06;101144.16;103249;1301;107808;-67
2022/12/19 02:22:46;;;;;;;33.50;13.10;;;;;;;-9.35;73.22;101142.58;103256;1294;97842;-68
2022/12/19 02:25:27;;;;;;;38.80;14.00;;;;;;;-9.39;73.12;101141.40;103281;1297;97844;-69
2022/12/19 02:28:10;;;;;;;38.10;13.80;;;;;;;-9.44;73.28;101146.19;103283;1297;111801;-68
2022/12/19 02:31:06;;;;;;;40.60;15.60;;;;;;;-9.46;73.28;101143.72;103281;1303;97655;-67
2022/12/19 02:34:10;;;;;;;39.40;15.20;;;;;;;-9.45;73.33;101140.64;103215;1294;108164;-68
2022/12/19 02:36:52;;;;;;;38.00;14.70;;;;;;;-9.47;73.24;101140.38;103263;1296;97908;-67
2022/12/19 02:39:45;;;;;;;38.20;15.30;;;;;;;-9.47;73.18;101147.08;103296;1295;98085;-67
2022/12/19 02:42:28;;;;;;;35.30;13.80;;;;;;;-9.48;73.26;101153.06;103241;1296;111736;-66
2022/12/19 02:45:02;;;;;;;34.20;14.10;;;;;;;-9.45;73.21;101152.65;103284;1301;97876;-66
2022/12/19 02:47:34;;;;;;;41.40;15.70;;;;;;;-9.43;73.28;101152.26;103319;1290;105806;-66
2022/12/19 02:50:04;;;;;;;40.70;15.90;;;;;;;-9.41;73.24;101153.54;103315;1295;97968;-65
2022/12/19 02:52:32;;;;;;;39.60;15.80;;;;;;;-9.38;73.27;101152.27;103318;1294;95160;-65
2022/12/19 02:55:06;;;;;;;43.50;16.60;;;;;;;-9.35;73.06;101154.25;103270;1301;111838;-66
2022/12/19 02:57:40;;;;;;;;;;;;;;;-9.34;73.03;101158.96;103361;1294;97883;-65
2022/12/19 03:00:21;;;;;;;40.30;15.60;;;;;;;-9.36;73.14;101164.05;103248;1294;107831;-66
2022/12/19 03:03:24;;;;;;;45.70;16.60;;;;;;;-9.34;73.03;101166.16;103263;1296;98590;-68
2022/12/19 03:06:21;;;;;;;45.30;17.10;;;;;;;-9.35;73.03;101164.59;103299;1288;97918;-70
2022/12/19 03:09:26;;;;;;;44.50;16.60;;;;;;;-9.36;72.96;101161.98;103249;1301;111691;-68
2022/12/19 03:12:07;;;;;;;41.80;16.00;;;;;;;-9.36;73.09;101165.39;103228;1301;97885;-69
2022/12/19 03:14:44;;;;;;;43.40;18.10;;;;;;;-9.37;72.95;101160.39;103325;1292;108251;-67
2022/12/19 03:17:12;;;;;;;46.30;18.90;;;;;;;-9.39;72.90;101160.83;103338;1296;98032;-68
2022/12/19 03:19:41;;;;;;;47.10;18.80;;;;;;;-9.40;72.90;101160.23;103289;1295;97962;-67
2022/12/19 03:22:08;;;;;;;44.20;17.60;;;;;;;-9.43;72.83;101161.86;103230;1302;112174;-66
2022/12/19 03:24:36;;;;;;;45.30;17.30;;;;;;;-9.45;72.91;101161.59;103327;1293;97895;-67
2022/12/19 03:27:16;;;;;;;47.80;20.70;;;;;;;-9.47;72.82;101161.16;103257;1302;108092;-66
2022/12/19 03:30:08;;;;;;;53.20;21.60;;;;;;;-9.50;72.99;101159.15;103273;1302;97789;-67
2022/12/19 03:32:41;;;;;;;45.40;16.40;;;;;;;-9.52;72.76;101156.84;103320;1294;95189;-71
2022/12/19 03:35:15;;;;;;;36.70;15.50;;;;;;;-9.55;72.92;101150.67;103325;1301;111648;-69
2022/12/19 03:37:47;;;;;;;37.90;14.00;;;;;;;-9.58;72.84;101146.64;103260;1301;97995;-67
2022/12/19 03:40:20;;;;;;;43.30;16.90;;;;;;;-9.59;72.88;101144.20;103266;1302;107462;-67
2022/12/19 03:43:10;;;;;;;40.10;15.50;;;;;;;-9.62;72.91;101138.73;103261;1294;95185;-68
2022/12/19 03:45:50;;;;;;;43.20;18.90;;;;;;;-9.63;72.79;101132.16;103234;1296;97922;-67
2022/12/19 03:48:47;;;;;;;45.50;19.30;;;;;;;-9.64;72.81;101123.18;103194;1302;110780;-66
2022/12/19 03:51:30;;;;;;;36.40;13.40;;;;;;;-9.66;72.90;101120.17;103183;1295;98577;-69
2022/12/19 03:54:13;;;;;;;34.20;12.60;;;;;;;-9.69;72.84;101112.14;103203;1301;108098;-67
2022/12/19 03:56:46;;;;;;;31.60;12.10;;;;;;;-9.73;72.86;101112.31;103187;1294;97837;-70
2022/12/19 03:59:40;;;;;;;43.70;14.70;;;;;;;-9.78;72.82;101111.09;103224;1293;97971;-67
2022/12/19 04:02:13;;;;;;;34.90;13.20;;;;;;;-9.81;72.82;101113.02;103187;1294;111642;-66
2022/12/19 04:04:46;;;;;;;33.60;14.70;;;;;;;-9.83;72.78;101116.35;103206;1301;97851;-65
2022/12/19 04:07:16;;;;;;;34.60;13.60;;;;;;;-9.85;73.00;101119.52;103235;1287;107540;-66
2022/12/19 04:09:47;;;;;;;36.60;13.20;;;;;;;-9.87;72.84;101113.65;103258;1297;97903;-66
2022/12/19 04:12:20;;;;;;;41.00;14.40;;;;;;;-9.89;72.81;101108.55;103103;1296;98040;-65
2022/12/19 04:14:49;;;;;;;43.70;16.80;;;;;;;-9.89;73.03;101107.90;103228;1287;110841;-65
2022/12/19 04:17:33;;;;;;;40.90;17.70;;;;;;;-9.89;73.02;101102.91;103163;1302;97957;-66
2022/12/19 04:20:25;;;;;;;51.10;18.20;;;;;;;-9.87;72.79;101092.33;103227;1300;108164;-67
2022/12/19 04:22:53;;;;;;;45.40;17.60;;;;;;;-9.89;72.72;101097.06;103234;1293;95206;-67
2022/12/19 04:25:27;;;;;;;47.90;21.40;;;;;;;-9.91;72.66;101098.69;103240;1301;97880;-67
2022/12/19 04:28:05;;;;;;;50.50;19.70;;;;;;;-9.93;72.62;101093.26;103224;1305;111250;-67
2022/12/19 04:30:36;;;;;;;47.50;18.70;;;;;;;-9.99;72.33;101087.20;103204;1296;97980;-67
2022/12/19 04:33:05;;;;;;;48.80;19.70;;;;;;;-10.05;72.37;101086.77;103304;1302;107427;-65
2022/12/19 04:35:36;;;;;;;51.60;20.90;;;;;;;-10.09;72.32;101088.48;103238;1288;97842;-65
2022/12/19 04:38:05;;;;;;;53.00;20.80;;;;;;;-10.12;72.36;101086.25;103261;1300;97837;-66
2022/12/19 04:40:36;;;;;;;50.30;19.40;;;;;;;-10.17;72.59;101086.39;103211;1293;111769;-67
2022/12/19 04:43:09;;;;;;;48.00;18.80;;;;;;;-10.21;72.49;101087.97;103241;1301;97876;-66
2022/12/19 04:45:40;;;;;;;54.30;21.10;;;;;;;-10.26;72.34;101087.05;103195;1299;112320;-66
2022/12/19 04:48:09;;;;;;;64.00;25.50;;;;;;;-10.31;72.34;101085.25;103325;1293;98908;-66
2022/12/19 04:50:37;;;;;;;64.90;28.60;;;;;;;-10.42;72.27;101083.45;103252;1293;97964;-65
2022/12/19 04:53:05;;;;;;;85.30;37.50;;;;;;;-10.44;72.43;101082.66;103300;1300;111844;-65
2022/12/19 04:55:35;;;;;;;100.60;47.00;;;;;;;-10.46;72.36;101090.97;103333;1293;97907;-65
2022/12/19 04:58:05;;;;;;;99.40;46.40;;;;;;;-10.48;72.57;101095.85;103295;1293;107050;-66
2022/12/19 05:00:33;;;;;;;84.00;35.70;;;;;;;-10.53;72.60;101096.85;103231;1295;95193;-66
2022/12/19 05:03:01;;;;;;;77.00;34.90;;;;;;;-10.54;72.32;101103.16;103247;1298;95182;-66
2022/12/19 05:05:31;;;;;;;72.20;31.50;;;;;;;-10.57;72.52;101098.75;103140;1297;112386;-66
2022/12/19 05:07:59;;;;;;;66.10;29.00;;;;;;;-10.60;72.20;101093.64;103214;1302;95345;-66
2022/12/19 05:10:27;;;;;;;63.60;27.80;;;;;;;-10.63;72.38;101091.64;103107;1295;108475;-67
2022/12/19 05:12:55;;;;;;;62.30;23.10;;;;;;;-10.64;72.41;101091.92;103211;1295;97965;-67
2022/12/19 05:15:23;;;;;;;49.50;19.00;;;;;;;-10.64;72.48;101081.10;103318;1294;97915;-66
2022/12/19 05:17:51;;;;;;;44.30;15.60;;;;;;;-10.65;72.55;101090.16;103322;1293;111753;-65
2022/12/19 05:20:19;;;;;;;45.40;15.20;;;;;;;-10.69;72.47;101089.45;103283;1294;97887;-66
2022/12/19 05:22:48;;;;;;;48.70;16.20;;;;;;;-10.70;72.63;101090.95;103255;1301;108074;-69
2022/12/19 05:25:18;;;;;;;41.40;16.40;;;;;;;-10.71;72.51;101083.19;103249;1304;98084;-67
2022/12/19 05:27:45;;;;;;;42.50;14.80;;;;;;;-10.74;72.49;101083.20;103339;1301;97874;-67
2022/12/19 05:30:13;;;;;;;37.70;14.80;;;;;;;-10.81;72.65;101077.91;103212;1297;111884;-65
2022/12/19 05:32:41;;;;;;;39.30;14.90;;;;;;;-10.87;72.52;101078.16;103237;1295;97893;-66
2022/12/19 05:35:09;;;;;;;32.80;12.90;;;;;;;-10.91;72.53;101079.00;103328;1301;107224;-65
2022/12/19 05:37:38;;;;;;;40.50;13.30;;;;;;;-10.95;72.62;101077.27;103165;1301;96634;-67
2022/12/19 05:40:07;;;;;;;38.00;13.60;;;;;;;-10.97;72.54;101078.56;103203;1301;97883;-66
2022/12/19 05:42:35;;;;;;;39.60;14.10;;;;;;;-10.95;72.68;101077.09;103261;1295;110772;-66
2022/12/19 05:45:05;;;;;;;37.70;12.50;;;;;;;-10.94;72.77;101079.41;103346;1294;98454;-65
2022/12/19 05:47:33;;;;;;;34.90;13.00;;;;;;;-10.90;72.64;101078.18;103227;1300;107875;-65
2022/12/19 05:50:02;;;;;;;36.60;12.90;;;;;;;-10.89;72.78;101074.61;103173;1304;97935;-66
2022/12/19 05:52:31;;;;;;;31.80;12.20;;;;;;;-10.89;72.67;101067.96;103181;1300;97896;-66
2022/12/19 05:54:59;;;;;;;33.70;13.90;;;;;;;-10.89;72.74;101060.23;103180;1298;111975;-67
2022/12/19 05:57:28;;;;;;;32.00;11.30;;;;;;;-10.87;72.75;101062.89;103213;1300;97842;-66
2022/12/19 05:59:56;;;;;;;35.60;13.80;;;;;;;-10.88;72.77;101061.81;103183;1297;108555;-65
2022/12/19 06:02:25;;;;;;;40.00;14.50;;;;;;;-10.90;72.61;101061.40;103218;1300;97907;-65
2022/12/19 06:04:54;;;;;;;38.40;14.30;;;;;;;-10.90;72.58;101054.20;103305;1295;97876;-68
2022/12/19 06:07:23;;;;;;;39.60;13.70;;;;;;;-10.90;72.60;101049.23;103315;1294;111705;-65
2022/12/19 06:09:52;;;;;;;39.20;14.80;;;;;;;-10.90;72.51;101051.46;103333;1294;97889;-65
2022/12/19 06:12:20;;;;;;;47.10;16.50;;;;;;;-10.88;72.77;101048.14;103232;1294;108171;-68
2022/12/19 06:14:48;;;;;;;41.40;16.20;;;;;;;-10.84;72.59;101052.09;103247;1299;97967;-66
2022/12/19 06:17:17;;;;;;;52.40;19.30;;;;;;;-10.83;72.50;101051.95;103106;1304;97886;-66
2022/12/19 06:19:46;;;;;;;51.10;22.50;;;;;;;-10.85;72.40;101057.70;103244;1294;111757;-65
2022/12/19 06:22:15;;;;;;;64.20;23.60;;;;;;;-10.86;72.37;101060.88;103224;1301;97881;-65
2022/12/19 06:24:42;;;;;;;68.30;28.50;;;;;;;-10.91;72.42;101062.56;103230;1295;107178;-66
2022/12/19 06:27:11;;;;;;;69.70;29.00;;;;;;;-10.98;72.06;101067.54;103316;1301;97897;-66
2022/12/19 06:29:39;;;;;;;76.70;32.70;;;;;;;-11.03;72.18;101065.27;103259;1295;97819;-66
2022/12/19 06:32:06;;;;;;;75.20;33.60;;;;;;;-11.05;72.26;101065.36;103233;1294;111645;-66
2022/12/19 06:34:35;;;;;;;73.50;32.50;;;;;;;-11.09;72.16;101064.50;103288;1295;97549;-66
2022/12/19 06:37:23;;;;;;;86.00;38.80;;;;;;;-11.10;72.24;101065.95;103199;1303;107481;-66
2022/12/19 06:39:51;;;;;;;79.20;33.80;;;;;;;-11.14;72.33;101067.16;103222;1298;95236;-65
2022/12/19 06:42:22;;;;;;;82.30;34.80;;;;;;;-11.15;72.34;101066.26;103259;1301;97842;-66
2022/12/19 06:44:54;;;;;;;57.70;24.90;;;;;;;-11.13;72.38;101068.23;103244;1295;111667;-65
2022/12/19 06:47:24;;;;;;;54.80;21.20;;;;;;;-11.10;72.58;101068.02;103155;1304;97929;-66
2022/12/19 06:49:53;;;;;;;40.80;15.00;;;;;;;-11.03;72.61;101065.09;103267;1288;108154;-66
2022/12/19 06:52:21;;;;;;;41.00;15.40;;;;;;;-10.94;72.87;101064.12;103214;1300;97971;-66
2022/12/19 06:54:49;;;;;;;35.40;12.20;;;;;;;-10.83;73.10;101071.17;103328;1300;97971;-67
2022/12/19 06:57:17;;;;;;;36.50;13.40;;;;;;;-10.71;73.25;101072.02;103094;1303;111737;-67
2022/12/19 06:59:45;;;;;;;36.60;14.30;;;;;;;-10.61;73.15;101075.05;103244;1295;97939;-66
2022/12/19 07:02:29;;;;;;;31.90;12.00;;;;;;;-10.54;73.06;101077.77;103182;1305;107734;-68
2022/12/19 07:05:03;;;;;;;37.50;13.60;;;;;;;-10.46;73.15;101080.35;103245;1294;97885;-67
2022/12/19 07:07:31;;;;;;;33.50;11.30;;;;;;;-10.38;73.05;101092.02;103333;1294;97883;-66
2022/12/19 07:10:00;;;;;;;38.50;13.40;;;;;;;-10.32;73.15;101091.92;103356;1294;111720;-67
2022/12/19 07:12:29;;;;;;;34.10;12.10;;;;;;;-10.27;73.06;101089.05;103261;1298;95285;-68
2022/12/19 07:14:57;;;;;;;37.40;14.40;;;;;;;-10.22;72.91;101098.36;103231;1301;108074;-67
2022/12/19 07:17:27;;;;;;;33.90;13.00;;;;;;;-10.18;72.97;101103.52;103300;1285;98356;-69
2022/12/19 07:19:57;;;;;;;39.20;15.20;;;;;;;-10.13;73.03;101100.81;103155;1298;97975;-67
2022/12/19 07:22:31;;;;;;;34.40;12.90;;;;;;;-10.08;73.12;101100.71;103293;1300;112203;-66
2022/12/19 07:25:01;;;;;;;46.00;18.60;;;;;;;-10.07;72.74;101099.73;103309;1295;97908;-66
2022/12/19 07:27:31;;;;;;;48.40;18.40;;;;;;;-10.09;72.82;101103.73;103268;1300;106610;-66
2022/12/19 07:30:06;;;;;;;51.10;18.20;;;;;;;-10.11;72.73;101098.70;103203;1302;98024;-66
2022/12/19 07:32:35;;;;;;;50.10;19.10;;;;;;;-10.17;72.58;101101.00;103305;1303;98012;-66
2022/12/19 07:35:06;;;;;;;51.70;20.80;;;;;;;-10.20;72.55;101106.19;103322;1300;111435;-66
2022/12/19 07:37:34;;;;;;;59.90;23.20;;;;;;;-10.29;72.52;101104.77;103278;1302;97966;-66
2022/12/19 07:40:04;;;;;;;67.80;22.90;;;;;;;-10.36;72.69;101109.59;103248;1300;107969;-66
2022/12/19 07:42:32;;;;;;;53.00;18.90;;;;;;;-10.38;72.54;101109.16;103246;1300;97985;-67
2022/12/19 07:45:01;;;;;;;56.60;19.10;;;;;;;-10.39;72.71;101104.52;103289;1295;97894;-66
2022/12/19 07:47:29;;;;;;;48.20;18.40;;;;;;;-10.40;72.78;101102.08;103289;1301;111748;-66
2022/12/19 07:49:57;;;;;;;53.50;21.10;;;;;;;-10.44;72.82;101092.30;103228;1301;97932;-66
2022/12/19 07:52:27;;;;;;;54.50;20.70;;;;;;;-10.46;72.77;101087.93;103260;1301;108121;-66
2022/12/19 07:54:55;;;;;;;60.80;22.70;;;;;;;-10.44;72.82;101087.48;103233;1301;97956;-66
2022/12/19 07:57:23;;;;;;;53.90;20.70;;;;;;;-10.42;72.76;101085.85;103266;1296;97964;-67
2022/12/19 07:59:51;;;;;;;53.00;21.00;;;;;;;-10.39;72.88;101087.36;103267;1297;110788;-67
2022/12/19 08:02:21;;;;;;;62.30;22.40;;;;;;;-10.36;73.05;101082.48;103124;1297;97997;-68
2022/12/19 08:04:51;;;;;;;58.10;23.40;;;;;;;-10.32;73.01;101082.17;103207;1300;108213;-66
2022/12/19 08:07:20;;;;;;;56.50;22.40;;;;;;;-10.26;73.07;101078.14;103241;1300;97877;-66
2022/12/19 08:09:48;;;;;;;59.60;22.90;;;;;;;-10.20;73.09;101069.63;103255;1300;97864;-69
2022/12/19 08:12:15;;;;;;;56.60;21.60;;;;;;;-10.14;73.38;101065.10;103123;1298;111779;-66
2022/12/19 08:14:43;;;;;;;47.80;19.70;;;;;;;-10.05;73.32;101056.39;103229;1300;95482;-66
2022/12/19 08:17:11;;;;;;;54.90;22.30;;;;;;;-9.94;73.32;101055.62;103272;1297;108137;-66
2022/12/19 08:19:49;;;;;;;50.90;19.60;;;;;;;-9.82;73.25;101059.75;103108;1302;97918;-67
2022/12/19 08:22:20;;;;;;;53.90;21.20;;;;;;;-9.70;73.45;101064.51;103326;1298;97959;-66
2022/12/19 08:24:48;;;;;;;52.10;22.40;;;;;;;-9.59;73.48;101058.27;103215;1296;112079;-66
2022/12/19 08:27:16;;;;;;;50.90;23.20;;;;;;;-9.47;73.49;101055.67;103233;1303;97977;-66
2022/12/19 08:29:46;;;;;;;51.70;23.00;;;;;;;-9.35;73.53;101056.67;103309;1298;108068;-67
2022/12/19 08:32:16;;;;;;;50.20;21.80;;;;;;;-9.23;73.59;101054.43;103262;1300;98010;-67
2022/12/19 08:34:50;;;;;;;55.30;21.90;;;;;;;-9.10;73.70;101049.61;103368;1300;97951;-68
2022/12/19 08:37:18;;;;;;;54.60;23.10;;;;;;;-8.95;73.68;101044.30;103252;1300;111788;-67
2022/12/19 08:39:46;;;;;;;46.20;19.20;;;;;;;-8.80;73.71;101038.89;103304;1297;97875;-67
2022/12/19 08:42:14;;;;;;;52.80;24.50;;;;;;;-8.59;73.83;101036.19;103277;1295;108139;-67
2022/12/19 08:44:42;;;;;;;64.20;26.10;;;;;;;-8.35;74.03;101033.77;103158;1303;97876;-68
2022/12/19 08:47:11;;;;;;;55.10;22.70;;;;;;;-8.07;73.98;101029.59;103292;1303;97873;-67
2022/12/19 08:49:40;;;;;;;56.90;22.30;;;;;;;-7.76;73.94;101023.71;103237;1300;111771;-69
2022/12/19 08:52:08;;;;;;;47.50;21.00;;;;;;;-7.48;74.10;101020.34;103246;1302;98537;-67
2022/12/19 08:54:38;;;;;;;49.20;20.50;;;;;;;-7.11;74.04;101019.57;103267;1299;107473;-67
2022/12/19 08:57:10;;;;;;;44.30;18.30;;;;;;;-6.69;74.18;101019.29;103300;1300;97994;-67
2022/12/19 08:59:39;;;;;;;48.70;20.30;;;;;;;-6.29;74.08;101014.86;103287;1299;97876;-66
2022/12/19 09:02:10;;;;;;;44.30;18.40;;;;;;;-5.95;74.11;101018.52;103262;1300;110217;-66
2022/12/19 09:04:39;;;;;;;48.30;19.90;;;;;;;-5.59;74.06;101019.57;103129;1303;97939;-67
2022/12/19 09:07:28;;;;;;;48.70;23.00;;;;;;;-5.14;74.38;101015.44;103206;1300;108195;-67
2022/12/19 09:09:56;;;;;;;49.50;23.80;;;;;;;-4.66;74.36;101005.05;103242;1300;97870;-67
2022/12/19 09:12:26;;;;;;;59.00;23.00;;;;;;;-4.15;74.04;101006.58;103267;1297;97979;-67
2022/12/19 09:14:54;;;;;;;58.50;24.00;;;;;;;-3.60;73.92;101003.20;103354;1300;111511;-68
2022/12/19 09:17:23;;;;;;;67.40;28.80;;;;;;;-3.12;73.78;101001.67;103383;1294;96182;-68
2022/12/19 09:19:53;;;;;;;56.90;22.60;;;;;;;-2.69;73.63;100990.98;103325;1300;106939;-67
2022/12/19 09:22:21;;;;;;;54.20;24.60;;;;;;;-2.37;72.94;100983.19;103324;1301;97941;-66
2022/12/19 09:24:57;;;;;;;51.80;22.80;;;;;;;-2.42;71.22;100974.44;103260;1302;95180;-66
2022/12/19 09:27:25;;;;;;;48.50;20.70;;;;;;;-2.60;72.12;100975.96;103343;1299;110992;-67
2022/12/19 09:29:53;;;;;;;45.60;19.20;;;;;;;-2.75;71.43;100971.63;103312;1301;98023;-66
2022/12/19 09:32:21;;;;;;;43.70;19.40;;;;;;;-2.92;71.92;100974.88;103303;1302;108127;-66
2022/12/19 09:34:49;;;;;;;44.70;20.90;;;;;;;-2.89;73.34;100966.06;103299;1300;98196;-66
2022/12/19 09:37:18;;;;;;;45.60;21.10;;;;;;;-2.76;73.65;100962.73;103290;1301;97893;-66
2022/12/19 09:39:48;;;;;;;44.50;19.40;;;;;;;-2.61;73.54;100962.41;103291;1300;111814;-67
2022/12/19 09:42:27;;;;;;;41.20;19.10;;;;;;;-2.48;73.06;100964.30;103301;1302;95086;-67
2022/12/19 09:45:11;;;;;;;41.30;18.70;;;;;;;-2.47;73.13;100956.32;103320;1300;107931;-67
2022/12/19 09:47:48;;;;;;;43.40;20.50;;;;;;;-2.44;72.99;100947.66;103321;1300;97849;-66
2022/12/19 09:50:31;;;;;;;41.50;19.00;;;;;;;-2.50;73.07;100945.86;103373;1302;98010;-67
2022/12/19 09:53:26;;;;;;;43.70;18.60;;;;;;;-2.50;72.92;100940.13;103274;1308;112131;-66
2022/12/19 09:55:59;;;;;;;43.60;19.90;;;;;;;-2.51;72.89;100938.38;103290;1295;97861;-67
2022/12/19 09:58:44;;;;;;;44.40;18.40;;;;;;;-2.62;72.67;100934.27;103322;1294;105386;-67
2022/12/19 10:01:30;;;;;;;44.80;18.40;;;;;;;-2.59;73.09;100932.90;103262;1300;97888;-67
2022/12/19 10:04:05;;;;;;;43.00;18.70;;;;;;;-2.56;72.56;100924.77;103234;1294;97870;-67
2022/12/19 10:06:33;;;;;;;44.40;20.10;;;;;;;-2.64;72.60;100919.65;103247;1302;111479;-65
2022/12/19 10:09:31;;;;;;;45.80;20.50;;;;;;;-2.63;73.12;100919.13;103257;1302;95283;-66
2022/12/19 10:12:42;;;;;;;44.90;21.30;;;;;;;-2.57;73.08;100916.77;103276;1300;107989;-66
2022/12/19 10:15:47;;;;;;;46.50;18.80;;;;;;;-2.54;73.10;100908.81;103304;1302;97993;-67
2022/12/19 10:18:51;;;;;;;44.60;19.10;;;;;;;-2.42;73.07;100901.30;103350;1293;97885;-67
2022/12/19 10:21:52;;;;;;;44.30;20.90;;;;;;;-2.33;73.28;100900.69;103222;1300;111822;-67
2022/12/19 10:25:02;;;;;;;47.20;19.90;;;;;;;-2.25;72.82;100897.29;103217;1299;97967;-67
2022/12/19 10:28:00;;;;;;;46.20;19.90;;;;;;;-2.22;72.81;100896.61;103233;1300;107913;-67
2022/12/19 10:30:37;;;;;;;49.10;20.50;;;;;;;-2.27;72.09;100899.19;103263;1301;97846;-68
2022/12/19 10:33:16;;;;;;;44.50;18.60;;;;;;;-2.21;72.60;100899.05;103342;1302;97742;-67
2022/12/19 10:35:58;;;;;;;36.60;15.60;;;;;;;-2.16;73.32;100891.10;103259;1294;111778;-67
2022/12/19 10:38:57;;;;;;;45.40;19.90;;;;;;;-2.06;73.06;100888.42;103239;1302;97947;-69
2022/12/19 10:41:29;;;;;;;46.60;20.30;;;;;;;-1.92;72.95;100886.10;103201;1300;108018;-67
2022/12/19 10:44:08;;;;;;;47.40;21.40;;;;;;;-1.84;73.10;100873.11;103282;1294;97826;-67
2022/12/19 10:46:48;;;;;;;46.20;20.40;;;;;;;-1.75;73.05;100868.98;103337;1300;97958;-66
2022/12/19 10:49:21;;;;;;;47.40;21.20;;;;;;;-1.72;72.17;100860.32;103366;1295;112969;-66
2022/12/19 10:51:55;;;;;;;47.90;22.50;;;;;;;-1.75;72.07;100859.08;103352;1295;97861;-66
2022/12/19 10:54:48;;;;;;;44.20;20.30;;;;;;;-1.77;72.96;100854.20;103321;1298;108058;-68
2022/12/19 10:57:28;;;;;;;44.50;19.50;;;;;;;-1.66;72.43;100851.33;103294;1302;97972;-67
2022/12/19 11:00:02;;;;;;;49.50;19.20;;;;;;;-1.63;72.56;100847.33;103266;1300;97930;-67
2022/12/19 11:02:37;;;;;;;45.50;19.50;;;;;;;-1.63;72.47;100841.42;103283;1292;111012;-65
2022/12/19 11:05:25;;;;;;;43.10;20.50;;;;;;;-1.57;72.38;100844.75;103321;1299;95179;-66
2022/12/19 11:08:05;;;;;;;42.00;16.80;;;;;;;-1.47;72.65;100839.23;103152;1301;107663;-67
2022/12/19 11:10:47;;;;;;;42.70;18.30;;;;;;;-1.47;71.15;100837.33;103373;1300;97867;-67
2022/12/19 11:13:35;;;;;;;37.50;16.20;;;;;;;-1.53;71.92;100837.48;103313;1299;97897;-65
2022/12/19 11:16:35;;;;;;;36.90;15.70;;;;;;;-1.53;71.72;100832.25;103331;1302;111396;-67
2022/12/19 11:19:26;;;;;;;36.80;16.30;;;;;;;-1.54;71.43;100823.38;103329;1300;97886;-66
2022/12/19 11:22:29;;;;;;;36.90;16.00;;;;;;;-1.51;71.52;100818.52;103349;1300;108060;-65
2022/12/19 11:25:36;;;;;;;41.60;17.00;;;;;;;-1.54;71.61;100815.17;103304;1303;97968;-67
2022/12/19 11:28:35;;;;;;;40.20;15.90;;;;;;;-1.57;70.71;100816.58;103315;1298;97892;-66
2022/12/19 11:31:28;;;;;;;37.00;15.10;;;;;;;-1.59;71.70;100812.55;103237;1294;111944;-67
2022/12/19 11:34:23;;;;;;;36.60;15.00;;;;;;;-1.62;71.45;100808.02;103281;1294;97989;-67